Flight Track Log - Related Links

Times and Time Zones

All times are in EDT time to prevent confusion due to time zone crossing. See the AVN11 flight status page for this flight to view local times or setup timezone preferences in your user account.

Time Position Orientation Groundspeed Altitude Reporting Facility
EDT Latitude Longitude Course Direction KTS MPH feet Rate Location/Type
Thu 09:12:54 PM -34.0263 151.1894 353° North 6,600  Level Aus ATC (Calculated)
Thu 09:12:58 PM -33.9620 151.1800 340° North 169 194 600 -14,182 Descending FlightAware ADS-B
Thu 09:13:16 PM -33.9779 151.1817 340° North 176 203 1,400 1,800 Climbing FlightAware ADS-B
Thu 09:13:38 PM -33.9794 151.1815 184° South 195 224 1,800 1,347 Climbing FlightAware ADS-B
Thu 09:14:05 PM -34.0226 151.1767 185° South 217 250 2,500 1,957 Climbing FlightAware ADS-B
Thu 09:14:24 PM -34.0352 151.1785 173° South 227 261 3,300 1,902 Climbing FlightAware ADS-B
Thu 09:14:46 PM -34.0648 151.1873 166° South 248 285 3,800 1,313 Climbing FlightAware ADS-B
Thu 09:14:56 PM -34.0691 151.1893 159° South 266 306 4,000 2,200 Climbing FlightAware ADS-B
Thu 09:15:16 PM -34.0936 151.2096 145° Southeast 273 314 4,900 2,943 Climbing FlightAware ADS-B
Thu 09:15:49 PM -34.1247 151.2482 134° Southeast 280 322 6,600 2,800 Climbing FlightAware ADS-B
Thu 09:16:01 PM -34.1286 151.2664 104° East 291 335 7,000 2,182 Climbing FlightAware ADS-B
Thu 09:16:11 PM -34.1282 151.2803 88° East 301 346 7,400 1,800 Climbing FlightAware ADS-B
Thu 09:16:21 PM -34.1231 151.2991 72° East 310 357 7,600 1,800 Climbing FlightAware ADS-B
Thu 09:16:31 PM -34.1168 151.3111 58° Northeast 312 359 8,000 2,233 Climbing FlightAware ADS-B
Thu 09:17:04 PM -34.0864 151.3609 54° Northeast 324 373 9,200 2,151 Climbing FlightAware ADS-B
Thu 09:17:24 PM -34.0706 151.3864 53° Northeast 330 380 9,900 1,759 Climbing FlightAware ADS-B
Thu 09:18:02 PM -34.0334 151.4485 53° Northeast 340 391 10,900 1,385 Climbing Aus ATC (RADAR)
Thu 09:18:16 PM -34.0202 151.4707 53° Northeast 377 434 11,100 1,733 Climbing FlightAware ADS-B
Thu 09:18:47 PM -33.9863 151.5264 54° Northeast 390 449 12,200 2,066 Climbing FlightAware ADS-B
Thu 09:19:17 PM -33.9580 151.5725 53° Northeast 401 461 13,200 2,923 Climbing FlightAware ADS-B
Thu 09:19:26 PM -33.9432 151.5966 54° Northeast 406 467 14,100 2,160 Climbing FlightAware ADS-B
Thu 09:19:42 PM -33.9287 151.6255 59° Northeast 412 474 14,100 1,412 Level FlightAware ADS-B
Thu 09:20:00 PM -33.9192 151.6680 75° East 417 480 14,900 2,226 Climbing FlightAware ADS-B
Thu 09:20:44 PM -33.9165 151.7638 88° East 431 496 16,400 2,250 Climbing FlightAware ADS-B
Thu 09:21:20 PM -33.9134 151.8567 88° East 440 506 17,900 2,348 Climbing FlightAware ADS-B
Thu 09:21:53 PM -33.9107 151.9377 88° East 446 513 19,100 2,091 Climbing FlightAware ADS-B
Thu 09:22:26 PM -33.9079 152.0195 88° East 454 522 20,200 2,000 Climbing FlightAware ADS-B
Thu 09:23:05 PM -33.9066 152.1209 89° East 461 531 21,500 2,055 Climbing FlightAware ADS-B
Thu 09:23:39 PM -33.9073 152.2079 91° East 464 534 22,700 2,074 Climbing FlightAware ADS-B
Thu 09:24:26 PM -33.9083 152.3309 91° East 455 524 24,300 1,811 Climbing Aus ATC (RADAR)
Thu 09:24:32 PM -33.9080 152.3360 91° East 469 540 24,300 1,235 Level FlightAware ADS-B
Thu 09:25:00 PM -33.9090 152.4100 91° East 476 548 25,000 1,522 Climbing FlightAware ADS-B
Thu 09:25:39 PM -33.9090 152.5130 90° East 484 557 26,000 1,500 Climbing FlightAware ADS-B
Thu 09:26:16 PM -33.9097 152.6249 90° East 475 547 26,900 1,297 Climbing Aus ATC (RADAR)
Thu 09:26:16 PM -33.9100 152.6130 90° East 493 567 26,800 727 Descending FlightAware ADS-B
Thu 09:26:49 PM -33.9050 152.7040 86° East 505 581 27,300 1,132 Climbing FlightAware ADS-B
Thu 09:27:09 PM -33.8890 152.7670 73° East 510 587 27,800 1,200 Climbing FlightAware ADS-B
Thu 09:27:44 PM -33.8570 152.8560 67° East 519 597 28,400 1,029 Climbing FlightAware ADS-B
Thu 09:28:19 PM -33.8230 152.9510 67° East 524 603 29,000 1,029 Climbing FlightAware ADS-B
Thu 09:28:54 PM -33.7890 153.0470 67° East 531 611 29,600 943 Climbing FlightAware ADS-B
Thu 09:29:29 PM -33.7570 153.1420 68° East 541 623 30,100 1,200 Climbing FlightAware ADS-B
Thu 09:30:04 PM -33.7220 153.2400 67° East 536 617 31,000 1,286 Climbing FlightAware ADS-B
Thu 09:30:39 PM -33.6910 153.3290 67° East 540 621 31,600 1,235 Climbing FlightAware ADS-B
Thu 09:31:12 PM -33.6590 153.4200 67° East 535 616 32,400 1,099 Climbing FlightAware ADS-B
Thu 09:31:50 PM -33.6230 153.5210 67° East 540 621 32,900 909 Climbing FlightAware ADS-B
Thu 09:32:18 PM -33.5940 153.6030 67° East 540 621 33,400 698 Climbing FlightAware ADS-B
Thu 09:33:16 PM -33.5410 153.7480 66° East 539 620 33,900 1,091 Climbing FlightAware ADS-B
Thu 09:33:46 PM -33.5090 153.8380 67° East 530 610 35,000 892 Climbing FlightAware ADS-B
Thu 09:34:30 PM -33.4618 153.9707 67° East 509 586 35,000  Level Aus ATC (RADAR)
Thu 09:34:37 PM -33.4640 153.9620 67° East 533 613 35,000  Level FlightAware ADS-B
Thu 09:35:21 PM -33.4210 154.0850 67° East 531 611 35,000  Level FlightAware ADS-B
Thu 09:36:04 PM -33.3770 154.2070 67° East 529 609 35,000  Level FlightAware ADS-B
Thu 09:36:41 PM -33.3450 154.2920 66° East 529 609 35,000  Level FlightAware ADS-B
Thu 09:37:17 PM -33.3150 154.3730 66° East 529 609 35,000  Level FlightAware ADS-B
Thu 09:37:55 PM -33.2628 154.5185 66° East 504 580 35,000  Level Aus ATC (RADAR)
Thu 09:37:55 PM -33.2690 154.5030 66° East 526 605 35,000 828 Level FlightAware ADS-B
Thu 09:38:24 PM -33.2250 154.5770 55° Northeast 499 574 35,400 560 Climbing FlightAware ADS-B
Thu 09:39:10 PM -33.1406 154.6602 55° Northeast 477 549 35,700 130 Climbing Aus ATC (RADAR)
Thu 09:39:10 PM -33.1520 154.6490 55° Northeast 480 552 35,500 514 Descending FlightAware ADS-B
Thu 09:39:45 PM -33.0779 154.7194 55° Northeast 485 558 36,000 556 Climbing Aus ATC (RADAR)
Thu 09:40:04 PM -33.0480 154.7490 55° Northeast 567 652 36,000  Level FlightAware ADS-B
Thu 09:40:38 PM -32.9910 154.8070 40° Northeast 495 570 36,000  Level FlightAware ADS-B
Thu 09:41:21 PM -32.9150 154.8820 40° Northeast 496 571 36,000  Level FlightAware ADS-B
Thu 09:41:55 PM -32.8550 154.9410 40° Northeast 497 572 36,000  Level FlightAware ADS-B
Thu 09:42:25 PM -32.7956 154.9996 40° Northeast 485 558 36,000  Level Aus ATC (RADAR)
Thu 09:42:41 PM -32.7750 155.0200 40° Northeast 498 573 36,000  Level FlightAware ADS-B
Thu 09:43:16 PM -32.7120 155.0810 39° Northeast 499 574 36,000  Level FlightAware ADS-B
Thu 09:43:50 PM -32.6500 155.1410 39° Northeast 501 577 36,000  Level FlightAware ADS-B
Thu 09:44:23 PM -32.5900 155.1990 39° Northeast 503 579 36,000  Level FlightAware ADS-B
Thu 09:45:03 PM -32.5230 155.2650 40° Northeast 504 580 36,000  Level FlightAware ADS-B
Thu 09:45:40 PM -32.4510 155.3350 39° Northeast 506 582 36,000  Level FlightAware ADS-B
Thu 09:46:19 PM -32.3870 155.3960 39° Northeast 509 586 36,000  Level FlightAware ADS-B
Thu 09:46:53 PM -32.3240 155.4570 39° Northeast 510 587 36,000  Level FlightAware ADS-B
Thu 09:47:34 PM -32.2460 155.5320 39° Northeast 511 588 36,000  Level FlightAware ADS-B
Thu 09:48:05 PM -32.1796 155.5954 39° Northeast 499 574 36,000  Level Aus ATC (RADAR)
Thu 09:48:10 PM -32.1940 155.5820 39° Northeast 511 588 36,000  Level FlightAware ADS-B
Thu 09:48:46 PM -32.1380 155.6350 39° Northeast 511 588 36,000  Level FlightAware ADS-B
Thu 09:49:22 PM -32.0820 155.6890 39° Northeast 511 588 36,000  Level FlightAware ADS-B
Thu 09:49:58 PM -32.0260 155.7430 39° Northeast 511 588 36,000  Level FlightAware ADS-B
Thu 09:50:34 PM -31.9690 155.7970 39° Northeast 511 588 36,000  Level FlightAware ADS-B
Thu 09:51:10 PM -31.9130 155.8500 39° Northeast 511 588 36,000  Level FlightAware ADS-B
Thu 09:51:47 PM -31.8550 155.9050 39° Northeast 511 588 36,000  Level FlightAware ADS-B
Thu 09:52:23 PM -31.7990 155.9590 39° Northeast 511 588 36,000  Level FlightAware ADS-B
Thu 09:52:59 PM -31.7430 156.0120 39° Northeast 511 588 36,000  Level FlightAware ADS-B
Thu 09:53:35 PM -31.6870 156.0660 39° Northeast 511 588 36,000  Level FlightAware ADS-B
Thu 09:54:11 PM -31.6300 156.1190 38° Northeast 511 588 36,000  Level FlightAware ADS-B
Thu 09:54:47 PM -31.5740 156.1730 39° Northeast 511 588 36,000  Level FlightAware ADS-B
Thu 09:55:23 PM -31.5180 156.2260 39° Northeast 511 588 36,000  Level FlightAware ADS-B
Thu 09:55:59 PM -31.4620 156.2800 39° Northeast 511 588 36,000  Level FlightAware ADS-B
Thu 09:56:35 PM -31.4050 156.3330 38° Northeast 511 588 36,000  Level FlightAware ADS-B
Thu 09:57:11 PM -31.3490 156.3860 39° Northeast 511 588 36,000 -69 Level FlightAware ADS-B
Thu 09:58:02 PM -31.0718 156.6439 39° Northeast 528 608 35,900 -66 Descending Aus ATC (RADAR)
Thu 09:58:42 PM -30.9952 156.7150 39° Northeast 529 609 35,900  Level Aus ATC (RADAR)
Thu 09:59:27 PM -30.9092 156.7950 39° Northeast 529 609 35,900  Level Aus ATC (RADAR)
Thu 10:00:02 PM -30.8421 156.8573 39° Northeast 529 609 35,900  Level Aus ATC (RADAR)
Thu 10:00:52 PM -30.7467 156.9455 38° Northeast 527 606 35,900  Level Aus ATC (RADAR)
Thu 10:01:17 PM -30.6995 156.9890 38° Northeast 523 602 35,900  Level Aus ATC (RADAR)
Thu 10:02:47 PM -30.5294 157.1455 38° Northeast 522 601 35,900  Level Aus ATC (RADAR)
Thu 10:03:07 PM -30.4914 157.1801 38° Northeast 522 601 35,900  Level Aus ATC (RADAR)
Thu 10:03:46 PM -30.4183 157.2477 39° Northeast 511 588 35,900  Level Aus ATC (RADAR)
Thu 10:04:31 PM -30.3332 157.3258 38° Northeast 515 593 35,900  Level Aus ATC (RADAR)
Thu 10:05:01 PM -30.2758 157.3783 38° Northeast 520 598 35,900  Level Aus ATC (RADAR)
Thu 10:05:56 PM -30.1722 157.4735 38° Northeast 520 598 35,900  Level Aus ATC (RADAR)
Thu 10:06:16 PM -30.1350 157.5081 39° Northeast 519 597 35,900  Level Aus ATC (RADAR)
Thu 10:07:51 PM -29.9546 157.6719 38° Northeast 520 598 35,900  Level Aus ATC (RADAR)
Thu 10:08:41 PM -29.8609 157.7570 38° Northeast 518 596 35,900  Level Aus ATC (RADAR)
Thu 10:09:01 PM -29.8229 157.7913 38° Northeast 518 596 35,900  Level Aus ATC (RADAR)
Thu 10:09:37 PM -29.7557 157.8516 38° Northeast 520 598 35,900  Level Aus ATC (RADAR)
Thu 10:10:36 PM -29.6403 157.9544 38° Northeast 523 602 35,900  Level Aus ATC (RADAR)
Thu 10:11:11 PM -29.5727 158.0143 38° Northeast 524 603 35,900  Level Aus ATC (RADAR)
Thu 10:11:41 PM -29.5157 158.0644 37° Northeast 523 602 35,900  Level Aus ATC (RADAR)
Thu 10:15:05 PM -29.1225 158.4133 38° Northeast 36,000 20 Climbing Aus ATC (Calculated)
Thu 10:16:41 PM -28.9058 158.6041 41° Northeast 36,000  Level Aus ATC (Calculated)
Thu 10:18:00 PM -28.7765 158.7304 41° Northeast  Level Estimated
Thu 10:19:00 PM -28.6782 158.8262 41° Northeast  Level Estimated
Thu 10:20:00 PM -28.5798 158.9217 40° Northeast  Level Estimated
Thu 10:21:00 PM -28.4813 159.0171 40° Northeast  Level Estimated
Thu 10:21:41 PM -28.2950 159.1365 47° Northeast 36,000  Level Aus ATC (Calculated)
Thu 10:22:51 PM -28.1931 159.2607 North 36,000  Level Aus ATC (Calculated)
Thu 10:23:00 PM -28.1655 159.2619 40° Northeast  Level Estimated
Thu 10:24:00 PM -28.0798 159.3698 40° Northeast  Level Estimated
Thu 10:25:00 PM -27.9811 159.4645 40° Northeast  Level Estimated
Thu 10:25:26 PM -27.9457 159.5605 360° North 36,000  Level Aus ATC (Calculated)
Thu 10:25:38 PM -27.9457 159.5605 47° Northeast 36,000  Level Aus ATC (Calculated)
Thu 10:26:35 PM -27.8544 159.6707 20° North 36,000  Level Aus ATC (Calculated)
Thu 10:27:00 PM -27.8104 159.6890 40° Northeast  Level Estimated
Thu 10:27:51 PM -27.7214 159.8305 288° West 36,000  Level Aus ATC (Calculated)
Thu 10:28:00 PM -27.7138 159.8035 40° Northeast  Level Estimated
Thu 10:29:00 PM -27.6070 159.9378 40° Northeast  Level Estimated
Thu 10:30:00 PM -27.5075 160.0309 40° Northeast  Level Estimated
Thu 10:31:00 PM -27.4079 160.1238 40° Northeast  Level Estimated
Thu 10:32:00 PM -27.3083 160.2165 40° Northeast  Level Estimated
Thu 10:32:10 PM -27.2978 160.3357 39° Northeast 36,000  Level Aus ATC (Calculated)
Thu 10:34:00 PM -27.1139 160.5038 39° Northeast  Level Estimated
Thu 10:34:20 PM -27.0827 160.5900 46° Northeast 36,000  Level Aus ATC (Calculated)
Thu 10:35:10 PM -27.0176 160.6666 46° Northeast 36,000  Level Aus ATC (Calculated)
Thu 10:36:20 PM -26.8914 160.8148 15° North 36,000  Level Aus ATC (Calculated)
Thu 10:37:00 PM -26.8327 160.8329 39° Northeast  Level Estimated
Thu 10:38:00 PM -26.7228 160.9653 39° Northeast  Level Estimated
Thu 10:38:20 PM -26.6599 161.0854 38° Northeast 36,000  Level Aus ATC (Calculated)
Thu 10:40:00 PM -26.4905 161.2343 38° Northeast  Level Estimated
Thu 10:40:01 PM -26.5035 161.2672 38° Northeast 36,000  Level Aus ATC (Calculated)
Thu 10:42:00 PM -26.3012 161.4432 38° Northeast  Level Estimated
Thu 10:43:00 PM -26.1992 161.5317 38° Northeast  Level Estimated
Thu 10:44:00 PM -26.0971 161.6201 38° Northeast  Level Estimated
Thu 10:45:00 PM -25.9949 161.7082 38° Northeast  Level Estimated
Thu 10:46:00 PM -25.8927 161.7963 38° Northeast  Level Estimated
Thu 10:47:00 PM -25.7905 161.8842 38° Northeast  Level Estimated
Thu 10:48:00 PM -25.6882 161.9719 38° Northeast  Level Estimated
Thu 10:49:00 PM -25.5858 162.0595 38° Northeast  Level Estimated
Thu 10:50:00 PM -25.4834 162.1469 38° Northeast  Level Estimated
Thu 10:50:00 PM -25.5059 162.4093 36° Northeast 36,000  Level Aus ATC (Calculated)
Thu 10:51:00 PM -25.4017 162.4940 36° Northeast  Level Estimated
Thu 10:52:00 PM -25.2974 162.5785 36° Northeast  Level Estimated
Thu 10:53:00 PM -25.1931 162.6629 36° Northeast  Level Estimated
Thu 10:54:00 PM -25.0887 162.7471 36° Northeast  Level Estimated
Thu 10:55:00 PM -24.9842 162.8313 36° Northeast  Level Estimated
Thu 10:56:00 PM -24.8798 162.9152 36° Northeast  Level Estimated
Thu 10:57:00 PM -24.7752 162.9990 36° Northeast  Level Estimated
Thu 10:58:00 PM -24.6707 163.0827 36° Northeast  Level Estimated
Thu 10:59:00 PM -24.5660 163.1662 36° Northeast  Level Estimated
Thu 11:00:00 PM -24.4614 163.2496 36° Northeast  Level Estimated
Thu 11:01:00 PM -24.3567 163.3329 36° Northeast  Level Estimated
Thu 11:02:00 PM -24.2519 163.4160 36° Northeast  Level Estimated
Thu 11:03:00 PM -24.1471 163.4990 36° Northeast  Level Estimated
Thu 11:04:00 PM -24.0423 163.5819 36° Northeast  Level Estimated
Thu 11:05:00 PM -23.9374 163.6646 36° Northeast  Level Estimated
Thu 11:06:00 PM -23.8324 163.7472 36° Northeast  Level Estimated
Thu 11:07:00 PM -23.7274 163.8296 36° Northeast  Level Estimated
Thu 11:08:00 PM -23.6224 163.9119 36° Northeast  Level Estimated
Thu 11:09:00 PM -23.5174 163.9941 36° Northeast  Level Estimated
Thu 11:10:00 PM -23.4123 164.0762 36° Northeast  Level Estimated
Thu 11:11:00 PM -23.3071 164.1581 36° Northeast  Level Estimated
Thu 11:12:00 PM -23.2019 164.2399 36° Northeast  Level Estimated
Thu 11:13:00 PM -23.0967 164.3215 36° Northeast  Level Estimated
Thu 11:14:00 PM -22.9914 164.4030 35° Northeast  Level Estimated
Thu 11:15:00 PM -22.8861 164.4845 35° Northeast  Level Estimated
Thu 11:16:00 PM -22.7807 164.5657 35° Northeast  Level Estimated
Thu 11:17:00 PM -22.6753 164.6469 35° Northeast  Level Estimated
Thu 11:18:00 PM -22.5699 164.7279 35° Northeast  Level Estimated
Thu 11:19:00 PM -22.4644 164.8088 35° Northeast  Level Estimated
Thu 11:20:00 PM -22.3589 164.8896 35° Northeast  Level Estimated
Thu 11:21:00 PM -22.2533 164.9703 35° Northeast  Level Estimated
Thu 11:22:00 PM -22.1477 165.0508 35° Northeast  Level Estimated
Thu 11:23:00 PM -22.0421 165.1312 35° Northeast  Level Estimated
Thu 11:24:00 PM -21.9364 165.2115 35° Northeast  Level Estimated
Thu 11:25:00 PM -21.8307 165.2917 35° Northeast  Level Estimated
Thu 11:26:00 PM -21.7249 165.3718 35° Northeast  Level Estimated
Thu 11:27:00 PM -21.6191 165.4517 35° Northeast  Level Estimated
Thu 11:28:00 PM -21.5133 165.5316 35° Northeast  Level Estimated
Thu 11:29:00 PM -21.4074 165.6113 35° Northeast  Level Estimated
Thu 11:30:00 PM -21.3015 165.6909 35° Northeast  Level Estimated
Thu 11:31:00 PM -21.1955 165.7703 35° Northeast  Level Estimated
Thu 11:32:00 PM -21.0895 165.8497 35° Northeast  Level Estimated
Thu 11:33:00 PM -20.9835 165.9290 35° Northeast  Level Estimated
Thu 11:34:00 PM -20.8775 166.0081 35° Northeast  Level Estimated
Thu 11:35:00 PM -20.7714 166.0871 35° Northeast  Level Estimated
Thu 11:36:00 PM -20.6652 166.1660 35° Northeast  Level Estimated
Thu 11:37:00 PM -20.5591 166.2449 35° Northeast  Level Estimated
Thu 11:38:00 PM -20.4529 166.3236 35° Northeast  Level Estimated
Thu 11:39:00 PM -20.3466 166.4021 35° Northeast  Level Estimated
Thu 11:40:00 PM -20.2403 166.4806 35° Northeast  Level Estimated
Thu 11:41:00 PM -20.1340 166.5590 35° Northeast  Level Estimated
Thu 11:42:00 PM -20.0277 166.6373 35° Northeast  Level Estimated
Thu 11:43:00 PM -19.9213 166.7154 35° Northeast  Level Estimated
Thu 11:44:00 PM -19.8149 166.7935 35° Northeast  Level Estimated
Thu 11:45:00 PM -19.7085 166.8714 35° Northeast  Level Estimated
Thu 11:46:00 PM -19.6020 166.9493 35° Northeast  Level Estimated
Thu 11:47:00 PM -19.4955 167.0270 35° Northeast  Level Estimated
Thu 11:48:00 PM -19.3889 167.1047 35° Northeast  Level Estimated
Thu 11:49:00 PM -19.2823 167.1822 34° Northeast  Level Estimated
Thu 11:50:00 PM -19.1757 167.2597 34° Northeast  Level Estimated
Thu 11:51:00 PM -19.0691 167.3370 34° Northeast  Level Estimated
Thu 11:52:00 PM -18.9624 167.4142 34° Northeast  Level Estimated
Thu 11:53:00 PM -18.8557 167.4914 34° Northeast  Level Estimated
Thu 11:54:00 PM -18.7489 167.5684 34° Northeast  Level Estimated
Thu 11:55:00 PM -18.6422 167.6454 34° Northeast  Level Estimated
Thu 11:56:00 PM -18.5354 167.7222 34° Northeast  Level Estimated
Thu 11:57:00 PM -18.4285 167.7990 34° Northeast  Level Estimated
Thu 11:58:00 PM -18.3217 167.8756 34° Northeast  Level Estimated
Thu 11:59:00 PM -18.2148 167.9522 34° Northeast  Level Estimated
Fri 12:00:00 AM -18.1078 168.0287 34° Northeast  Level Estimated
Fri 12:01:00 AM -18.0009 168.1051 34° Northeast  Level Estimated
Fri 12:02:00 AM -17.8939 168.1814 34° Northeast  Level Estimated
Fri 12:03:00 AM -17.7869 168.2575 34° Northeast  Level Estimated
Fri 12:04:00 AM -17.6993 168.3198 34° Northeast  Level Estimated
Fri 12:05:00 AM -17.6993 168.3198 37° Northeast  Level Estimated
Fri 12:06:00 AM -17.6993 168.3198 143° Southeast  Level Estimated
Fri 12:07:00 AM -17.6993 168.3198 37° Northeast  Level Estimated
Fri 12:08:00 AM -17.6993 168.3198 143° Southeast  Level Estimated
Fri 12:09:00 AM -17.6993 168.3198 37° Northeast  Level Estimated
Fri 12:10:00 AM -17.6993 168.3198 143° Southeast  Level Estimated
Fri 12:11:00 AM -17.6993 168.3198 37° Northeast  Level Estimated
Fri 12:12:00 AM -17.6993 168.3198 143° Southeast  Level Estimated
Fri 12:13:00 AM -17.6993 168.3198 37° Northeast  Level Estimated
Fri 12:14:00 AM -17.6993 168.3198 143° Southeast  Level Estimated
Fri 12:15:00 AM -17.6993 168.3198 37° Northeast  Level Estimated
Fri 12:16:00 AM -17.6993 168.3198 143° Southeast  Level Estimated
Fri 12:17:00 AM -17.6993 168.3198 37° Northeast  Level Estimated
Fri 12:18:00 AM -17.6993 168.3198 143° Southeast  Level Estimated
Fri 12:19:00 AM -17.6993 168.3198 37° Northeast  Level Estimated
Fri 12:20:00 AM -17.6993 168.3198 143° Southeast  Level Estimated
Fri 12:21:00 AM -17.6993 168.3198 37° Northeast  Level Estimated

Login

Don't have an account? Register now (free) for customized features, flight alerts, and more!